Time;durP1;ratioP1;P1;durP2;ratioP2;P2;SDS_P1;SDS_P2;PMS_P1;PMS_P2;Temp;Humidity;BMP_temperature;BMP_pressure;BME280_temperature;BME280_humidity;BME280_pressure;Samples;Min_cycle;Max_cycle;Signal;HPM_P1;HPM_P2
2022/05/01 00:01:17;;;;;;;7.40;3.80;;;;;;;;;;4980690;28;20034;-93
2022/05/01 00:03:43;;;;;;;7.03;4.20;;;;;;;;;;4980933;28;20031;-92
2022/05/01 00:06:11;;;;;;;4.70;3.65;;;;;;;;;;4980656;28;20030;-94
2022/05/01 00:08:41;;;;;;;4.18;3.38;;;;;;;;;;4980670;28;20050;-94
2022/05/01 00:11:08;;;;;;;5.63;3.55;;;;;;;;;;4981528;28;20089;-93
2022/05/01 00:13:34;;;;;;;4.32;3.70;;;;;;;;;;4980622;28;20387;-94
2022/05/01 00:16:01;;;;;;;4.22;3.65;;;;;;;;;;4980520;28;20022;-94
2022/05/01 00:18:27;;;;;;;4.05;3.58;;;;;;;;;;4980485;28;20065;-94
2022/05/01 00:20:53;;;;;;;4.93;3.90;;;;;;;;;;4980492;28;20390;-94
2022/05/01 00:23:20;;;;;;;4.97;4.13;;;;;;;;;;4980531;28;20108;-94
2022/05/01 00:25:46;;;;;;;5.03;3.78;;;;;;;;;;4980550;28;20030;-94
2022/05/01 00:28:16;;;;;;;5.25;3.78;;;;;;;;;;4980262;28;20026;-93
2022/05/01 00:30:42;;;;;;;5.03;4.50;;;;;;;;;;4980387;28;20022;-93
2022/05/01 00:38:39;;;;;;;6.25;3.97;;;;;;;;;;4997918;28;20033;-94
2022/05/01 00:41:07;;;;;;;4.05;3.17;;;;;;;;;;4980395;28;20513;-94
2022/05/01 00:43:33;;;;;;;4.95;3.67;;;;;;;;;;4980299;28;20026;-94
2022/05/01 00:45:59;;;;;;;4.07;3.20;;;;;;;;;;4980138;28;20029;-94
2022/05/01 00:48:26;;;;;;;3.78;3.22;;;;;;;;;;4980361;28;20533;-93
2022/05/01 00:50:52;;;;;;;3.95;3.25;;;;;;;;;;4979935;28;20023;-93
2022/05/01 00:53:18;;;;;;;3.65;3.35;;;;;;;;;;4979830;28;20026;-93
2022/05/01 00:55:45;;;;;;;6.20;3.60;;;;;;;;;;4979796;28;20030;-93
2022/05/01 00:58:11;;;;;;;4.82;3.80;;;;;;;;;;4979837;28;20041;-93
2022/05/01 01:00:38;;;;;;;4.40;3.70;;;;;;;;;;4979896;28;20545;-95
2022/05/01 01:03:04;;;;;;;4.03;3.60;;;;;;;;;;4979743;28;20031;-94
2022/05/01 01:05:30;;;;;;;3.63;3.10;;;;;;;;;;4979690;28;20026;-95
2022/05/01 01:08:00;;;;;;;3.75;3.25;;;;;;;;;;4979685;28;20030;-94
2022/05/01 01:10:27;;;;;;;3.58;2.97;;;;;;;;;;4979656;28;20563;-95
2022/05/01 01:12:56;;;;;;;3.80;3.20;;;;;;;;;;4979399;28;20026;-93
2022/05/01 01:15:23;;;;;;;5.53;3.15;;;;;;;;;;4979515;28;20023;-93
2022/05/01 01:17:54;;;;;;;5.00;3.28;;;;;;;;;;4979377;28;20479;-94
2022/05/01 01:20:21;;;;;;;4.25;2.97;;;;;;;;;;4979458;28;20022;-94
2022/05/01 01:22:49;;;;;;;3.58;3.10;;;;;;;;;;4979456;28;20029;-93
2022/05/01 01:25:17;;;;;;;4.70;3.28;;;;;;;;;;4979320;28;20491;-93
2022/05/01 01:27:44;;;;;;;4.38;3.35;;;;;;;;;;4979056;28;20026;-94
2022/05/01 01:32:55;;;;;;;3.65;3.15;;;;;;;;;;4996605;28;20052;-94
2022/05/01 01:35:23;;;;;;;3.63;3.05;;;;;;;;;;4978996;28;20027;-94
2022/05/01 01:37:53;;;;;;;3.13;2.80;;;;;;;;;;4979103;28;20498;-94
2022/05/01 01:40:21;;;;;;;3.67;2.92;;;;;;;;;;4979040;28;20490;-94
2022/05/01 01:42:49;;;;;;;3.25;2.72;;;;;;;;;;4979017;28;20485;-95
2022/05/01 01:45:16;;;;;;;3.83;3.05;;;;;;;;;;4978929;28;20034;-94
2022/05/01 01:47:44;;;;;;;3.53;2.83;;;;;;;;;;4978794;28;20495;-94
2022/05/01 01:50:12;;;;;;;3.20;2.83;;;;;;;;;;4978756;28;20395;-94
2022/05/01 01:52:38;;;;;;;3.88;2.75;;;;;;;;;;4978685;28;20438;-94
2022/05/01 01:55:05;;;;;;;3.53;2.88;;;;;;;;;;4978174;28;20032;-94
2022/05/01 01:57:31;;;;;;;3.78;2.55;;;;;;;;;;4978679;28;20026;-93
2022/05/01 01:59:57;;;;;;;3.58;2.70;;;;;;;;;;4978508;28;20030;-94
2022/05/01 02:02:23;;;;;;;3.17;2.65;;;;;;;;;;4978546;28;20026;-93
2022/05/01 02:04:49;;;;;;;3.67;2.88;;;;;;;;;;4978569;28;20407;-94
2022/05/01 02:07:15;;;;;;;3.47;2.97;;;;;;;;;;4978561;28;20026;-94
2022/05/01 02:09:41;;;;;;;3.05;2.60;;;;;;;;;;4978313;28;20084;-94
2022/05/01 02:12:08;;;;;;;3.25;2.80;;;;;;;;;;4978684;28;20168;-94
2022/05/01 02:14:35;;;;;;;5.47;2.80;;;;;;;;;;4978185;28;20026;-94
2022/05/01 02:17:04;;;;;;;3.97;2.85;;;;;;;;;;4978284;28;20037;-94
2022/05/01 02:19:30;;;;;;;4.57;2.80;;;;;;;;;;4978322;28;20081;-94
2022/05/01 02:21:56;;;;;;;5.70;2.92;;;;;;;;;;4978453;28;20032;-94
2022/05/01 02:24:25;;;;;;;3.70;2.90;;;;;;;;;;4978210;28;20029;-93
2022/05/01 02:26:52;;;;;;;3.50;3.00;;;;;;;;;;4978060;28;20372;-95
2022/05/01 02:29:18;;;;;;;3.80;2.60;;;;;;;;;;4978274;28;20022;-94
2022/05/01 02:31:45;;;;;;;3.83;3.15;;;;;;;;;;4978091;28;20037;-94
2022/05/01 02:34:12;;;;;;;3.63;2.88;;;;;;;;;;4978148;28;20014;-94
2022/05/01 02:36:39;;;;;;;4.03;2.45;;;;;;;;;;4978084;28;20490;-94
2022/05/01 02:39:05;;;;;;;3.20;2.90;;;;;;;;;;4978000;28;20117;-95
2022/05/01 02:41:32;;;;;;;4.05;2.92;;;;;;;;;;4977983;28;20501;-95
2022/05/01 02:43:58;;;;;;;3.67;2.80;;;;;;;;;;4977944;28;20129;-94
2022/05/01 02:46:28;;;;;;;3.70;3.10;;;;;;;;;;4977905;28;20475;-95
2022/05/01 02:48:54;;;;;;;4.85;2.75;;;;;;;;;;4977984;28;20475;-94
2022/05/01 02:51:21;;;;;;;4.10;3.10;;;;;;;;;;4977994;28;20029;-94
2022/05/01 02:53:47;;;;;;;4.50;3.10;;;;;;;;;;4977825;28;20026;-93
2022/05/01 02:56:13;;;;;;;6.07;3.38;;;;;;;;;;4977919;28;20482;-93
2022/05/01 02:58:39;;;;;;;3.60;2.88;;;;;;;;;;4977965;28;20037;-93
2022/05/01 03:01:05;;;;;;;3.63;3.20;;;;;;;;;;4977877;28;20495;-93
2022/05/01 03:03:33;;;;;;;3.95;3.20;;;;;;;;;;4977844;28;20037;-93
2022/05/01 03:05:59;;;;;;;4.47;3.10;;;;;;;;;;4977656;28;20030;-93
2022/05/01 03:08:26;;;;;;;4.78;3.30;;;;;;;;;;4980705;28;20077;-93
2022/05/01 03:10:53;;;;;;;4.82;3.10;;;;;;;;;;4981627;28;20018;-94
2022/05/01 03:13:19;;;;;;;4.30;3.40;;;;;;;;;;4982075;28;20176;-94
2022/05/01 03:15:45;;;;;;;3.17;2.85;;;;;;;;;;4981565;28;20026;-94
2022/05/01 03:23:41;;;;;;;3.55;2.90;;;;;;;;;;4999338;28;20383;-94
2022/05/01 03:26:10;;;;;;;4.00;3.22;;;;;;;;;;4981311;28;20053;-93
2022/05/01 03:28:36;;;;;;;4.80;3.22;;;;;;;;;;4981467;28;20022;-94
2022/05/01 03:31:03;;;;;;;3.90;3.13;;;;;;;;;;4981320;28;20023;-95
2022/05/01 03:33:31;;;;;;;3.65;3.35;;;;;;;;;;4981263;28;20025;-94
2022/05/01 03:35:57;;;;;;;4.45;3.53;;;;;;;;;;4981398;28;20026;-95
2022/05/01 03:38:23;;;;;;;4.40;3.40;;;;;;;;;;4981360;28;20030;-95
2022/05/01 03:40:49;;;;;;;3.90;3.00;;;;;;;;;;4981250;28;20482;-94
2022/05/01 03:43:16;;;;;;;5.97;3.63;;;;;;;;;;4981236;28;20032;-94
2022/05/01 03:45:42;;;;;;;4.65;3.47;;;;;;;;;;4981115;28;20031;-94
2022/05/01 03:48:09;;;;;;;5.22;3.55;;;;;;;;;;4981013;28;20022;-94
2022/05/01 03:50:36;;;;;;;4.93;3.45;;;;;;;;;;4981086;28;20014;-93
2022/05/01 03:53:04;;;;;;;4.05;3.30;;;;;;;;;;4980941;28;20034;-93
2022/05/01 03:55:31;;;;;;;4.88;3.30;;;;;;;;;;4980850;28;20050;-94
2022/05/01 03:57:58;;;;;;;5.65;3.40;;;;;;;;;;4980882;28;20025;-94
2022/05/01 04:00:25;;;;;;;5.05;3.35;;;;;;;;;;4980824;28;20085;-93
2022/05/01 04:02:52;;;;;;;5.78;3.38;;;;;;;;;;4980904;28;20030;-94
2022/05/01 04:05:18;;;;;;;4.50;3.28;;;;;;;;;;4980870;28;20558;-94
2022/05/01 04:07:44;;;;;;;4.03;3.22;;;;;;;;;;4980558;28;20121;-93
2022/05/01 04:10:11;;;;;;;5.63;2.88;;;;;;;;;;4980492;28;20049;-93
2022/05/01 04:12:42;;;;;;;3.88;3.40;;;;;;;;;;4980717;28;20035;-93
2022/05/01 04:15:09;;;;;;;4.38;3.83;;;;;;;;;;4980707;28;20395;-92
2022/05/01 04:17:38;;;;;;;4.45;3.35;;;;;;;;;;4980067;28;20383;-93
2022/05/01 04:20:08;;;;;;;3.92;3.53;;;;;;;;;;4980562;28;20062;-93
2022/05/01 04:22:41;;;;;;;5.95;3.72;;;;;;;;;;4980426;28;20026;-93
2022/05/01 04:25:14;;;;;;;5.05;3.58;;;;;;;;;;4980307;28;20031;-93
2022/05/01 04:27:41;;;;;;;3.80;3.25;;;;;;;;;;4980327;28;20054;-93
2022/05/01 04:30:07;;;;;;;4.78;3.30;;;;;;;;;;4980197;28;20517;-93
2022/05/01 04:32:34;;;;;;;4.57;3.47;;;;;;;;;;4980910;28;20018;-94
2022/05/01 04:35:00;;;;;;;5.13;3.67;;;;;;;;;;4981830;28;20022;-93
2022/05/01 04:37:27;;;;;;;3.83;3.28;;;;;;;;;;4981467;28;20030;-94
2022/05/01 04:39:53;;;;;;;5.85;3.65;;;;;;;;;;4980305;28;20128;-93
2022/05/01 04:42:20;;;;;;;4.53;3.05;;;;;;;;;;4980245;28;20030;-93
2022/05/01 04:44:47;;;;;;;4.35;3.38;;;;;;;;;;4980313;28;20435;-94
2022/05/01 04:47:13;;;;;;;3.47;3.17;;;;;;;;;;4980042;28;20049;-94
2022/05/01 04:49:39;;;;;;;5.00;3.40;;;;;;;;;;4980160;28;20386;-94
2022/05/01 04:52:05;;;;;;;5.55;3.83;;;;;;;;;;4980343;28;20072;-94
2022/05/01 04:54:31;;;;;;;4.93;3.25;;;;;;;;;;4980086;28;20105;-94
2022/05/01 04:57:08;;;;;;;4.75;4.18;;;;;;;;;;4979913;28;20026;-94
2022/05/01 04:59:35;;;;;;;4.00;3.45;;;;;;;;;;4979755;28;20034;-94
2022/05/01 05:02:01;;;;;;;3.85;3.40;;;;;;;;;;4979519;28;20037;-94
2022/05/01 05:04:27;;;;;;;3.92;3.35;;;;;;;;;;4979659;28;20034;-94
2022/05/01 05:06:54;;;;;;;4.43;3.40;;;;;;;;;;4979613;28;20027;-94
2022/05/01 05:12:07;;;;;;;8.07;5.78;;;;;;;;;;4997303;28;20106;-94
2022/05/01 05:14:33;;;;;;;10.23;6.95;;;;;;;;;;4979573;28;20027;-94
2022/05/01 05:17:01;;;;;;;7.85;6.85;;;;;;;;;;4979688;28;20050;-94
2022/05/01 05:19:27;;;;;;;8.40;6.03;;;;;;;;;;4981713;28;20038;-94
2022/05/01 05:21:53;;;;;;;9.93;6.07;;;;;;;;;;4983111;28;20428;-94
2022/05/01 05:24:20;;;;;;;4.10;3.60;;;;;;;;;;4983610;28;20038;-94
2022/05/01 05:26:46;;;;;;;5.45;3.40;;;;;;;;;;4981857;28;20176;-95
2022/05/01 05:29:12;;;;;;;5.65;4.03;;;;;;;;;;4978837;28;20029;-95
2022/05/01 05:31:38;;;;;;;7.00;4.70;;;;;;;;;;4978973;28;20030;-94
2022/05/01 05:34:04;;;;;;;15.25;10.95;;;;;;;;;;4979307;28;20026;-94
2022/05/01 05:36:31;;;;;;;22.20;14.70;;;;;;;;;;4995232;28;20030;-94
2022/05/01 05:38:57;;;;;;;20.50;14.43;;;;;;;;;;4995253;28;20030;-93
2022/05/01 05:41:23;;;;;;;23.67;14.90;;;;;;;;;;4995200;28;20031;-94
2022/05/01 05:43:49;;;;;;;25.00;16.60;;;;;;;;;;4995216;28;20030;-94
2022/05/01 05:46:15;;;;;;;30.50;17.85;;;;;;;;;;4995147;28;20031;-94
2022/05/01 05:48:41;;;;;;;41.05;21.70;;;;;;;;;;4995124;28;20113;-94
2022/05/01 05:51:07;;;;;;;48.85;24.38;;;;;;;;;;4995061;28;20478;-94
2022/05/01 05:53:34;;;;;;;52.40;27.50;;;;;;;;;;4995593;28;20040;-94
2022/05/01 05:56:00;;;;;;;43.80;23.95;;;;;;;;;;4994979;28;20564;-93
2022/05/01 05:58:26;;;;;;;71.88;36.22;;;;;;;;;;4994860;28;20113;-94
2022/05/01 06:00:52;;;;;;;68.82;35.95;;;;;;;;;;4994855;28;20034;-93
2022/05/01 06:03:19;;;;;;;58.15;29.38;;;;;;;;;;4994918;28;20034;-94
2022/05/01 06:05:46;;;;;;;48.50;25.10;;;;;;;;;;4994698;28;20109;-94
2022/05/01 06:08:12;;;;;;;48.85;25.30;;;;;;;;;;4995357;28;20022;-95
2022/05/01 06:10:38;;;;;;;60.85;30.55;;;;;;;;;;4998078;28;20030;-94
2022/05/01 06:13:05;;;;;;;80.32;40.63;;;;;;;;;;4994635;28;20022;-95
2022/05/01 06:15:31;;;;;;;73.03;37.35;;;;;;;;;;4994713;28;20022;-95
2022/05/01 06:17:57;;;;;;;63.10;32.10;;;;;;;;;;4995191;28;20660;-95
2022/05/01 06:20:24;;;;;;;51.35;28.77;;;;;;;;;;4995474;28;20562;-94
2022/05/01 06:22:50;;;;;;;66.18;33.50;;;;;;;;;;4994584;28;20506;-95
2022/05/01 06:25:16;;;;;;;59.40;29.90;;;;;;;;;;4994562;28;20026;-95
2022/05/01 06:27:43;;;;;;;45.60;24.80;;;;;;;;;;4994679;28;20064;-94
2022/05/01 06:30:12;;;;;;;40.50;21.92;;;;;;;;;;4994339;28;20019;-94
2022/05/01 06:32:43;;;;;;;38.67;19.33;;;;;;;;;;4994381;28;20033;-94
2022/05/01 06:35:09;;;;;;;32.95;18.85;;;;;;;;;;4994224;28;20034;-93
2022/05/01 06:37:35;;;;;;;37.13;20.25;;;;;;;;;;4994232;28;20399;-94
2022/05/01 06:40:03;;;;;;;35.95;20.63;;;;;;;;;;4994239;28;20057;-94
2022/05/01 06:42:30;;;;;;;36.08;19.23;;;;;;;;;;4993900;28;20034;-94
2022/05/01 06:44:56;;;;;;;33.75;20.25;;;;;;;;;;4994766;28;20522;-94
2022/05/01 06:47:22;;;;;;;39.20;21.35;;;;;;;;;;4994185;28;20033;-95
2022/05/01 06:49:48;;;;;;;34.33;19.15;;;;;;;;;;4994209;28;20033;-94
2022/05/01 06:52:19;;;;;;;36.20;21.00;;;;;;;;;;4994243;28;20117;-95
2022/05/01 06:54:45;;;;;;;35.30;19.63;;;;;;;;;;4995276;28;20026;-93
2022/05/01 06:57:11;;;;;;;31.20;18.63;;;;;;;;;;4994453;28;20471;-93
2022/05/01 06:59:37;;;;;;;32.20;17.70;;;;;;;;;;4994167;28;20026;-93
2022/05/01 07:02:04;;;;;;;34.50;18.40;;;;;;;;;;4994267;28;20031;-94
2022/05/01 07:04:30;;;;;;;32.10;16.55;;;;;;;;;;4994636;28;20050;-94
2022/05/01 07:06:56;;;;;;;30.15;16.77;;;;;;;;;;4995224;28;20142;-95
2022/05/01 07:09:22;;;;;;;18.48;13.00;;;;;;;;;;4995338;28;20511;-94
2022/05/01 07:11:48;;;;;;;20.60;12.38;;;;;;;;;;4994945;28;20026;-94
2022/05/01 07:14:14;;;;;;;18.77;11.88;;;;;;;;;;4993928;28;20110;-94
2022/05/01 07:16:41;;;;;;;15.88;10.35;;;;;;;;;;4993737;28;20031;-94
2022/05/01 07:19:07;;;;;;;15.15;9.52;;;;;;;;;;4993819;28;20030;-95
2022/05/01 07:21:33;;;;;;;13.30;9.02;;;;;;;;;;4978212;28;20033;-95
2022/05/01 07:23:59;;;;;;;12.35;9.15;;;;;;;;;;4977888;28;20486;-95
2022/05/01 07:26:33;;;;;;;9.93;7.93;;;;;;;;;;4978452;28;20034;-94
2022/05/01 07:28:59;;;;;;;11.70;8.88;;;;;;;;;;4977725;28;20029;-93
2022/05/01 07:31:26;;;;;;;9.40;7.55;;;;;;;;;;4977704;28;20018;-93
2022/05/01 07:33:52;;;;;;;8.48;7.63;;;;;;;;;;4977608;28;20488;-94
2022/05/01 07:36:21;;;;;;;8.73;7.25;;;;;;;;;;4977557;28;20398;-94
2022/05/01 07:38:49;;;;;;;9.65;7.43;;;;;;;;;;4977735;28;20061;-95
2022/05/01 07:41:18;;;;;;;9.70;7.07;;;;;;;;;;4977560;28;20049;-94
2022/05/01 07:43:47;;;;;;;8.07;6.40;;;;;;;;;;4980461;28;20052;-95
2022/05/01 07:46:14;;;;;;;9.25;6.53;;;;;;;;;;4979471;28;20431;-95
2022/05/01 07:48:40;;;;;;;11.35;7.35;;;;;;;;;;4977623;28;20092;-94
2022/05/01 07:51:07;;;;;;;9.27;6.50;;;;;;;;;;4977734;28;20042;-95
2022/05/01 07:53:33;;;;;;;8.07;7.05;;;;;;;;;;4979931;28;20105;-95
2022/05/01 07:56:00;;;;;;;10.05;6.72;;;;;;;;;;4981249;28;20433;-94
2022/05/01 07:58:27;;;;;;;11.40;7.28;;;;;;;;;;4980825;28;20081;-95
2022/05/01 08:00:54;;;;;;;10.77;7.63;;;;;;;;;;4981084;28;20030;-94
2022/05/01 08:06:08;;;;;;;10.20;7.22;;;;;;;;;;4999724;28;20467;-94
2022/05/01 08:08:34;;;;;;;9.10;6.78;;;;;;;;;;4981722;28;20041;-95
2022/05/01 08:11:01;;;;;;;9.40;6.78;;;;;;;;;;4980860;28;20023;-95
2022/05/01 08:13:27;;;;;;;7.70;6.30;;;;;;;;;;4983245;28;20019;-94
2022/05/01 08:15:53;;;;;;;8.65;6.15;;;;;;;;;;4981382;28;20022;-94
2022/05/01 08:21:10;;;;;;;11.38;7.30;;;;;;;;;;4998202;28;20041;-96
2022/05/01 08:23:40;;;;;;;9.18;6.95;;;;;;;;;;4980316;28;20026;-95
2022/05/01 08:26:07;;;;;;;8.13;6.95;;;;;;;;;;4980952;28;20033;-96
2022/05/01 08:28:37;;;;;;;9.35;7.10;;;;;;;;;;4980521;28;20027;-95
2022/05/01 08:31:04;;;;;;;7.88;7.07;;;;;;;;;;4981328;28;20029;-96
2022/05/01 08:33:30;;;;;;;9.77;6.50;;;;;;;;;;4983224;28;20022;-94
2022/05/01 08:35:56;;;;;;;9.00;6.25;;;;;;;;;;4982123;28;20049;-95
2022/05/01 08:38:23;;;;;;;7.45;6.65;;;;;;;;;;4981353;28;20387;-94
2022/05/01 08:40:50;;;;;;;8.95;6.68;;;;;;;;;;4983516;28;20024;-95
2022/05/01 08:43:18;;;;;;;5.93;5.28;;;;;;;;;;4982614;28;20030;-95
2022/05/01 08:45:53;;;;;;;6.93;6.22;;;;;;;;;;4982868;28;20022;-95
2022/05/01 08:48:24;;;;;;;9.55;7.28;;;;;;;;;;4981380;28;20045;-95
2022/05/01 08:50:51;;;;;;;9.18;6.50;;;;;;;;;;4980464;28;20387;-94
2022/05/01 08:53:18;;;;;;;7.82;6.45;;;;;;;;;;4980704;28;20036;-95
2022/05/01 08:55:46;;;;;;;7.90;6.15;;;;;;;;;;4981839;28;20029;-96
2022/05/01 08:58:14;;;;;;;7.43;6.20;;;;;;;;;;4985776;28;20091;-96
2022/05/01 09:00:41;;;;;;;9.45;5.60;;;;;;;;;;4985595;28;20086;-94
2022/05/01 09:03:07;;;;;;;6.35;5.75;;;;;;;;;;4981245;28;20387;-94
2022/05/01 09:05:34;;;;;;;8.98;5.30;;;;;;;;;;4982177;28;20475;-95
2022/05/01 09:08:02;;;;;;;9.20;5.45;;;;;;;;;;4981640;28;20037;-95
2022/05/01 09:10:34;;;;;;;7.90;5.47;;;;;;;;;;4980542;28;20122;-95
2022/05/01 09:13:01;;;;;;;6.85;5.15;;;;;;;;;;4979500;28;20054;-95
2022/05/01 09:15:34;;;;;;;6.32;5.43;;;;;;;;;;4979728;28;20364;-95
2022/05/01 09:18:04;;;;;;;7.35;5.40;;;;;;;;;;4979844;28;20033;-94
2022/05/01 09:20:30;;;;;;;6.43;5.47;;;;;;;;;;4980328;28;20506;-95
2022/05/01 09:23:12;;;;;;;5.60;4.65;;;;;;;;;;4979564;28;20026;-96
2022/05/01 09:25:38;;;;;;;7.20;5.95;;;;;;;;;;4980154;28;20073;-95
2022/05/01 09:28:24;;;;;;;7.10;5.28;;;;;;;;;;4979693;28;20034;-95
2022/05/01 09:30:52;;;;;;;6.47;5.05;;;;;;;;;;4979082;28;20092;-95
2022/05/01 09:33:19;;;;;;;6.95;5.25;;;;;;;;;;4979256;28;20489;-95
2022/05/01 09:35:46;;;;;;;11.25;5.53;;;;;;;;;;4980079;28;20026;-95
2022/05/01 09:38:16;;;;;;;13.07;5.72;;;;;;;;;;4979222;28;20097;-94
2022/05/01 09:40:47;;;;;;;6.45;5.20;;;;;;;;;;4979824;28;20077;-94
2022/05/01 09:43:34;;;;;;;7.45;5.07;;;;;;;;;;4980562;28;20018;-95
2022/05/01 09:46:22;;;;;;;5.90;4.90;;;;;;;;;;4982021;28;20036;-95
2022/05/01 09:49:05;;;;;;;5.32;4.45;;;;;;;;;;4981020;28;20019;-95
2022/05/01 09:51:51;;;;;;;6.63;4.45;;;;;;;;;;4981773;28;20364;-96
2022/05/01 09:54:18;;;;;;;6.50;5.38;;;;;;;;;;4968488;28;20080;-95
2022/05/01 09:56:47;;;;;;;7.10;4.65;;;;;;;;;;4982284;28;20030;-95
2022/05/01 09:59:14;;;;;;;7.53;4.95;;;;;;;;;;4988117;28;20441;-95
2022/05/01 10:01:43;;;;;;;5.47;4.93;;;;;;;;;;4990238;28;20093;-96
2022/05/01 10:04:12;;;;;;;4.93;4.43;;;;;;;;;;4990450;28;20089;-96
2022/05/01 10:06:38;;;;;;;4.88;4.40;;;;;;;;;;4990737;28;20026;-96
2022/05/01 10:09:05;;;;;;;5.55;4.30;;;;;;;;;;4981827;28;20129;-96
2022/05/01 10:11:32;;;;;;;4.55;4.15;;;;;;;;;;4969126;28;20509;-96
2022/05/01 10:13:59;;;;;;;5.88;4.35;;;;;;;;;;4968939;28;20038;-96
2022/05/01 10:16:26;;;;;;;5.63;4.10;;;;;;;;;;4964006;28;20027;-95
2022/05/01 10:18:54;;;;;;;4.93;4.10;;;;;;;;;;4964669;28;20106;-96
2022/05/01 10:21:22;;;;;;;6.50;4.35;;;;;;;;;;4961516;28;20487;-95
2022/05/01 10:23:51;;;;;;;4.65;4.22;;;;;;;;;;4963061;28;20030;-96
2022/05/01 10:26:37;;;;;;;4.68;4.15;;;;;;;;;;4963835;28;20027;-95
2022/05/01 10:29:15;;;;;;;6.90;4.30;;;;;;;;;;4961803;28;20030;-95
2022/05/01 10:34:45;;;;;;;5.13;4.60;;;;;;;;;;4976846;28;20077;-95
2022/05/01 10:37:26;;;;;;;4.63;4.03;;;;;;;;;;4959560;28;20031;-94
2022/05/01 10:39:53;;;;;;;5.57;5.03;;;;;;;;;;4959752;28;20118;-94
2022/05/01 10:42:36;;;;;;;6.68;4.88;;;;;;;;;;4959534;28;20127;-94
2022/05/01 10:45:03;;;;;;;6.63;4.63;;;;;;;;;;4959042;28;20038;-94
2022/05/01 10:47:40;;;;;;;5.78;5.03;;;;;;;;;;4959670;28;20039;-95
2022/05/01 10:50:09;;;;;;;4.85;4.32;;;;;;;;;;4959260;28;20026;-94
2022/05/01 10:52:55;;;;;;;6.15;4.35;;;;;;;;;;4959437;28;20187;-94
2022/05/01 10:55:21;;;;;;;5.00;4.50;;;;;;;;;;4959598;28;20025;-96
2022/05/01 10:58:08;;;;;;;5.32;3.95;;;;;;;;;;4959325;28;20054;-93
2022/05/01 11:00:46;;;;;;;8.88;4.35;;;;;;;;;;4958811;28;20110;-94
2022/05/01 11:03:22;;;;;;;7.03;5.15;;;;;;;;;;4958726;28;20053;-94
2022/05/01 11:05:52;;;;;;;7.00;5.32;;;;;;;;;;4959009;28;20054;-94
2022/05/01 11:08:27;;;;;;;9.48;5.20;;;;;;;;;;4959360;28;20031;-95
2022/05/01 11:10:55;;;;;;;6.70;5.85;;;;;;;;;;4979033;28;20088;-93
2022/05/01 11:13:24;;;;;;;8.25;6.10;;;;;;;;;;4979341;28;20022;-93
2022/05/01 11:15:55;;;;;;;8.25;7.00;;;;;;;;;;4978318;28;20518;-95
2022/05/01 11:18:31;;;;;;;9.38;5.78;;;;;;;;;;4978596;28;20113;-93
2022/05/01 11:21:23;;;;;;;7.10;5.15;;;;;;;;;;4978685;28;20026;-95
2022/05/01 11:24:02;;;;;;;5.65;4.93;;;;;;;;;;4979486;28;20117;-93
2022/05/01 11:26:37;;;;;;;5.07;4.57;;;;;;;;;;4978370;28;20066;-94
2022/05/01 11:29:10;;;;;;;6.60;5.60;;;;;;;;;;4980635;28;20019;-94
2022/05/01 11:31:46;;;;;;;5.32;4.82;;;;;;;;;;4982731;28;20459;-96
2022/05/01 11:34:15;;;;;;;8.63;5.80;;;;;;;;;;4983862;28;20023;-95
2022/05/01 11:37:01;;;;;;;6.13;5.43;;;;;;;;;;4982387;28;20038;-94
2022/05/01 11:39:55;;;;;;;7.28;5.68;;;;;;;;;;4983910;28;20030;-95
2022/05/01 11:42:25;;;;;;;7.97;5.53;;;;;;;;;;4983343;28;20028;-93
2022/05/01 11:44:54;;;;;;;6.55;5.45;;;;;;;;;;4982429;28;20026;-96
2022/05/01 11:47:21;;;;;;;7.45;5.78;;;;;;;;;;4982130;28;20491;-96
2022/05/01 11:50:05;;;;;;;8.35;7.30;;;;;;;;;;4983248;28;20491;-95
2022/05/01 11:52:36;;;;;;;9.82;8.27;;;;;;;;;;4982607;28;20019;-95
2022/05/01 11:55:06;;;;;;;8.63;6.88;;;;;;;;;;4984375;28;20025;-94
2022/05/01 12:03:11;;;;;;;6.50;5.78;;;;;;;;;;4999377;28;20112;-94
2022/05/01 12:05:47;;;;;;;5.72;5.13;;;;;;;;;;4981590;28;20057;-96
2022/05/01 12:08:14;;;;;;;7.30;4.85;;;;;;;;;;4982493;28;20096;-95
2022/05/01 12:10:50;;;;;;;6.85;5.13;;;;;;;;;;4963164;28;20548;-95
2022/05/01 12:13:21;;;;;;;6.60;4.65;;;;;;;;;;4962855;28;20424;-95
2022/05/01 12:15:47;;;;;;;8.13;6.13;;;;;;;;;;4961733;28;20109;-94
2022/05/01 12:18:13;;;;;;;6.45;5.05;;;;;;;;;;4961980;28;20551;-94
2022/05/01 12:20:43;;;;;;;5.15;4.13;;;;;;;;;;4962245;28;20030;-96
2022/05/01 12:23:13;;;;;;;5.50;4.60;;;;;;;;;;4962547;28;20169;-93
2022/05/01 12:25:41;;;;;;;5.60;4.60;;;;;;;;;;4961950;28;20117;-94
2022/05/01 12:28:08;;;;;;;4.85;4.35;;;;;;;;;;4961902;28;20115;-95
2022/05/01 12:30:34;;;;;;;5.75;5.13;;;;;;;;;;4961635;28;20115;-93
2022/05/01 12:33:03;;;;;;;7.22;4.43;;;;;;;;;;4961696;28;20023;-95
2022/05/01 12:35:29;;;;;;;5.68;4.32;;;;;;;;;;4961783;28;20030;-95
2022/05/01 12:37:59;;;;;;;4.63;4.03;;;;;;;;;;4961424;28;20062;-95
2022/05/01 12:45:56;;;;;;;5.38;4.78;;;;;;;;;;4978063;28;20034;-95
2022/05/01 12:48:22;;;;;;;6.97;4.90;;;;;;;;;;4961267;28;20023;-95
2022/05/01 12:50:52;;;;;;;6.75;4.82;;;;;;;;;;4961262;28;20026;-96
2022/05/01 12:53:28;;;;;;;7.72;5.30;;;;;;;;;;4963100;28;20073;-95
2022/05/01 12:55:55;;;;;;;5.90;5.20;;;;;;;;;;4961052;28;20031;-96
2022/05/01 12:58:31;;;;;;;6.78;5.20;;;;;;;;;;4963974;28;20423;-95
2022/05/01 13:00:58;;;;;;;6.40;5.22;;;;;;;;;;4961379;28;20027;-96
2022/05/01 13:03:36;;;;;;;6.30;4.60;;;;;;;;;;4960973;28;20018;-96
2022/05/01 13:06:28;;;;;;;4.78;4.28;;;;;;;;;;4961985;28;20049;-94
2022/05/01 13:08:59;;;;;;;6.25;5.13;;;;;;;;;;4924388;29;20049;-96
2022/05/01 13:11:30;;;;;;;7.35;5.35;;;;;;;;;;4960027;28;20023;-96
2022/05/01 13:13:56;;;;;;;5.32;4.78;;;;;;;;;;4961143;28;20029;-95
2022/05/01 13:16:25;;;;;;;5.10;4.40;;;;;;;;;;4962922;28;20117;-96
2022/05/01 13:18:52;;;;;;;6.85;5.00;;;;;;;;;;4960866;28;20097;-96
2022/05/01 13:21:18;;;;;;;6.75;5.70;;;;;;;;;;4960709;28;20027;-94
2022/05/01 13:23:45;;;;;;;11.57;8.95;;;;;;;;;;4960636;28;20027;-95
2022/05/01 13:26:11;;;;;;;14.40;10.85;;;;;;;;;;4962385;28;20058;-93
2022/05/01 13:28:38;;;;;;;6.85;5.28;;;;;;;;;;4977866;28;20018;-95
2022/05/01 13:31:04;;;;;;;5.38;4.88;;;;;;;;;;4960906;28;20376;-94
2022/05/01 13:33:30;;;;;;;5.75;5.03;;;;;;;;;;4960265;28;20046;-94
2022/05/01 13:35:57;;;;;;;6.85;5.00;;;;;;;;;;4961342;28;20019;-94
2022/05/01 13:38:23;;;;;;;5.10;4.70;;;;;;;;;;4960417;28;20023;-94
2022/05/01 13:46:19;;;;;;;7.53;5.38;;;;;;;;;;4979252;28;20049;-94
2022/05/01 13:48:45;;;;;;;6.22;4.90;;;;;;;;;;4994041;28;20018;-93
2022/05/01 13:51:14;;;;;;;8.38;4.95;;;;;;;;;;4992331;28;20045;-94
2022/05/01 13:53:42;;;;;;;6.32;5.10;;;;;;;;;;4993064;28;20093;-94
2022/05/01 13:56:11;;;;;;;5.43;4.53;;;;;;;;;;4993735;28;20372;-93
2022/05/01 13:58:40;;;;;;;4.82;4.28;;;;;;;;;;4995300;28;20023;-93
2022/05/01 14:01:06;;;;;;;3.97;3.50;;;;;;;;;;4993273;28;20033;-94
2022/05/01 14:03:32;;;;;;;4.45;3.78;;;;;;;;;;4994067;28;20022;-95
2022/05/01 14:05:58;;;;;;;4.75;4.10;;;;;;;;;;4991474;28;20027;-94
2022/05/01 14:08:24;;;;;;;5.22;4.72;;;;;;;;;;4993221;28;20383;-94
2022/05/01 14:10:51;;;;;;;5.78;5.18;;;;;;;;;;4979028;28;20463;-94
2022/05/01 14:13:17;;;;;;;5.20;4.30;;;;;;;;;;4978603;28;20471;-94
2022/05/01 14:15:43;;;;;;;5.85;4.40;;;;;;;;;;4978536;28;20119;-94
2022/05/01 14:18:09;;;;;;;6.50;4.10;;;;;;;;;;4978462;28;20034;-95
2022/05/01 14:20:36;;;;;;;4.47;4.00;;;;;;;;;;4978493;28;20089;-94
2022/05/01 14:23:04;;;;;;;5.57;4.15;;;;;;;;;;4978519;28;20019;-94
2022/05/01 14:25:31;;;;;;;7.20;6.00;;;;;;;;;;4978446;28;20032;-94
2022/05/01 14:27:57;;;;;;;5.18;4.13;;;;;;;;;;4977950;28;20033;-94
2022/05/01 14:30:23;;;;;;;7.32;5.05;;;;;;;;;;4977721;28;20024;-94
2022/05/01 14:32:54;;;;;;;5.10;4.60;;;;;;;;;;4977959;28;20030;-94
2022/05/01 14:35:21;;;;;;;5.67;4.40;;;;;;;;;;4979308;28;20025;-95
2022/05/01 14:37:57;;;;;;;7.03;4.78;;;;;;;;;;4978846;28;20129;-94
2022/05/01 14:40:25;;;;;;;5.70;4.65;;;;;;;;;;4978541;28;20117;-94
2022/05/01 14:42:53;;;;;;;5.03;4.18;;;;;;;;;;4978367;28;20026;-95
2022/05/01 14:45:23;;;;;;;7.65;6.20;;;;;;;;;;4978185;28;20027;-93
2022/05/01 14:47:55;;;;;;;7.18;5.80;;;;;;;;;;4978305;28;20050;-94
2022/05/01 14:50:21;;;;;;;7.10;5.57;;;;;;;;;;4978691;28;20030;-94
2022/05/01 14:52:53;;;;;;;6.40;5.22;;;;;;;;;;4978286;28;20113;-93
2022/05/01 14:55:21;;;;;;;8.88;6.50;;;;;;;;;;4979251;28;20030;-94
2022/05/01 14:57:48;;;;;;;6.25;5.65;;;;;;;;;;4981885;28;20046;-95
2022/05/01 15:08:31;;;;;;;6.32;5.72;;;;;;;;;;5000412;28;20049;-95
2022/05/01 15:10:57;;;;;;;7.50;5.22;;;;;;;;;;4983175;28;20030;-95
2022/05/01 15:13:24;;;;;;;6.20;5.03;;;;;;;;;;4982873;28;20097;-94
2022/05/01 15:16:09;;;;;;;6.47;4.70;;;;;;;;;;4979087;28;20088;-94
2022/05/01 15:18:44;;;;;;;8.65;5.68;;;;;;;;;;4978227;28;20568;-94
2022/05/01 15:24:21;;;;;;;14.80;5.32;;;;;;;;;;4996913;28;20461;-96
2022/05/01 15:26:50;;;;;;;7.63;5.13;;;;;;;;;;4979780;28;20026;-95
2022/05/01 15:29:20;;;;;;;8.65;5.82;;;;;;;;;;4979224;28;20085;-96
2022/05/01 15:31:47;;;;;;;13.35;6.70;;;;;;;;;;4979058;28;20498;-96
2022/05/01 15:34:14;;;;;;;20.77;6.22;;;;;;;;;;4980880;28;20442;-96
2022/05/01 15:36:47;;;;;;;16.98;6.10;;;;;;;;;;4984239;28;20090;-96
2022/05/01 15:39:27;;;;;;;6.40;4.90;;;;;;;;;;4989042;28;20064;-96